Aeroporto :
LOGIN :

Iscrizione | Disclaimer

   EN    FR    IT 

 










Sommario :    VFR   VFR Marginale   IFR   IFR Intensivo   IFR Molto Intensivo
Visibilità : 
Base nubi : 
>= 8 km
>= 3000ft
5 / 8 km
1000 / 3000 ft
1500m / 5 km
500 / 1000 ft
800 / 1500m
200 / 500 ft
< 800m
< 200 ft
Simboli :   Temporali  Nebbia  Neve Forte  Precipitazioni Forti  Vento > 20 kt
SIGMETs :   Varie  Temporali  Ghiacco  Turbolenza  Onda orograficha  Ceneri Vulcaniche






- Altitudine del aeroporto : 375 ft
- Codice IATA : MST


EHBK - Maastricht Aachen

ULTIMO METAR :
  • 250525Z AUTO 23007KT 200V270 2800 BR SCT002/// BKN003/// OVC004/// 12/12 Q1016 BECMG 4000 TEMPO BKN006

METARs OBSOLETI :
  • 250455Z AUTO 23007KT 200V280 2600 BR BKN001/// OVC002/// 12/12 Q1016 NOSIG
  • 250425Z AUTO 24007KT 210V280 1500 BR OVC001 12/12 Q1016 NOSIG
  • 250355Z AUTO 25008KT 210V280 0750 R21/1200N -DZ VV001 12/12 Q1015 REDZ
  • 250325Z AUTO 25007KT 210V280 0700 R21/1100D DZ VV000 12/12 Q1016
  • 250255Z AUTO 24008KT 210V280 0800 R21/1200D +DZRA BKN000 FEW015CB 12/12 Q1015
  • 250225Z AUTO 26006KT 220V300 1700 RA OVC000/// 13/13 Q1015
  • 250155Z AUTO 26007KT 210V300 1900 RA OVC001 13/13 Q1016 REDZRA
  • 250125Z AUTO 26006KT 220V300 1900 -SHRA DZ BKN001 OVC002 13/13 Q1016 RERADZ
  • 250055Z AUTO 28005KT 240V330 1700 RA OVC001 13/13 Q1016 REDZRA

TAF TAF EHBK
Valido dal 25 a 00 ore il 26 a 06 ore UTC


242318Z 2500/2606 24006KT 6000 -RADZ BKN004
TEMPO 2500/2509 2000 DZ BKN002
PROB30
TEMPO 2501/2506 0800 FG BKN001
BECMG 2509/2512 9999 NSW SCT030
PROB30
TEMPO 2509/2512 7000 -SHRA FEW025CB



MetMap, La meteo Aeronautica in un colpo d'occhio ! - Copyright ORBIFLY Dicembre 2007 - Disclaimer

ORBIFLY MET'MAP TEAM :

Programmazione e sviluppo : Alexandra Zaïnal
Concezione : Baudouin d'Aumeries
Supporto tecnico e logistico : Manuel Goepfert
Aiuto : Marc-Olivier Méhu
Aiuto per la traduzione : Arnaldo La Scala




FONTI E CREDITI :

   NOAA